createdAt,value
2023-05-21T00:00:44.619Z,1013.53
2023-05-21T00:01:42.624Z,1013.51
2023-05-21T00:02:42.679Z,1013.51
2023-05-21T00:03:42.731Z,1013.54
2023-05-21T00:04:42.615Z,1013.47
2023-05-21T00:05:42.855Z,1013.50
2023-05-21T00:06:42.585Z,1013.43
2023-05-21T00:07:42.557Z,1013.44
2023-05-21T00:08:42.558Z,1013.45
2023-05-21T00:09:42.584Z,1013.42
2023-05-21T00:10:42.555Z,1013.40
2023-05-21T00:11:42.524Z,1013.40
2023-05-21T00:12:42.513Z,1013.37
2023-05-21T00:13:42.488Z,1013.39
2023-05-21T00:14:42.559Z,1013.37
2023-05-21T00:15:42.530Z,1013.32
2023-05-21T00:16:42.475Z,1013.37
2023-05-21T00:17:46.610Z,1013.36
2023-05-21T00:18:42.477Z,1013.36
2023-05-21T00:19:42.430Z,1013.37
2023-05-21T00:20:42.409Z,1013.33
2023-05-21T00:21:42.423Z,1013.32
2023-05-21T00:22:42.595Z,1013.39
2023-05-21T00:23:42.380Z,1013.29
2023-05-21T00:24:42.364Z,1013.31
2023-05-21T00:25:42.382Z,1013.28
2023-05-21T00:26:42.338Z,1013.24
2023-05-21T00:27:43.298Z,1013.28
2023-05-21T00:28:42.345Z,1013.30
2023-05-21T00:29:44.130Z,1013.27
2023-05-21T00:30:42.310Z,1013.32
2023-05-21T00:31:42.346Z,1013.33
2023-05-21T00:32:42.325Z,1013.27
2023-05-21T00:33:42.310Z,1013.23
2023-05-21T00:34:42.294Z,1013.31
2023-05-21T00:35:42.249Z,1013.24
2023-05-21T00:36:42.254Z,1013.27
2023-05-21T00:37:42.219Z,1013.26
2023-05-21T00:38:42.229Z,1013.26
2023-05-21T00:39:42.216Z,1013.27
2023-05-21T00:40:42.200Z,1013.22
2023-05-21T00:41:42.176Z,1013.25
2023-05-21T00:42:42.159Z,1013.24
2023-05-21T00:43:42.185Z,1013.29
2023-05-21T00:44:42.157Z,1013.25
2023-05-21T00:45:42.983Z,1013.17
2023-05-21T00:46:42.105Z,1013.22
2023-05-21T00:47:42.155Z,1013.21
2023-05-21T00:48:44.078Z,1013.16
2023-05-21T00:49:42.189Z,1013.20
2023-05-21T00:50:42.093Z,1013.20
2023-05-21T00:51:42.099Z,1013.13
2023-05-21T00:52:42.449Z,1013.19
2023-05-21T00:53:42.034Z,1013.18
2023-05-21T00:54:42.019Z,1013.12
2023-05-21T00:55:41.998Z,1013.19
2023-05-21T00:56:42.023Z,1013.24
2023-05-21T00:57:42.014Z,1013.23
2023-05-21T00:58:41.992Z,1013.19
2023-05-21T00:59:41.952Z,1013.19
2023-05-21T01:00:41.974Z,1013.24
2023-05-21T01:01:41.999Z,1013.21
2023-05-21T01:02:42.038Z,1013.20
2023-05-21T01:03:41.936Z,1013.17
2023-05-21T01:04:41.928Z,1013.24
2023-05-21T01:05:41.927Z,1013.18
2023-05-21T01:06:42.886Z,1013.17
2023-05-21T01:07:41.914Z,1013.19
2023-05-21T01:08:41.893Z,1013.23
2023-05-21T01:09:41.882Z,1013.19
2023-05-21T01:10:41.828Z,1013.23
2023-05-21T01:11:43.334Z,1013.19
2023-05-21T01:12:41.824Z,1013.13
2023-05-21T01:13:41.870Z,1013.18
2023-05-21T01:14:41.808Z,1013.13
2023-05-21T01:15:41.786Z,1013.15
2023-05-21T01:16:41.797Z,1013.07
2023-05-21T01:17:41.815Z,1013.17
2023-05-21T01:18:41.822Z,1013.07
2023-05-21T01:19:41.826Z,1013.09
2023-05-21T01:20:41.734Z,1013.08
2023-05-21T01:21:41.716Z,1013.03
2023-05-21T01:22:41.713Z,1013.13
2023-05-21T01:23:41.722Z,1013.03
2023-05-21T01:24:43.206Z,1013.04
2023-05-21T01:25:41.737Z,1013.06
2023-05-21T01:26:41.653Z,1013.05
2023-05-21T01:27:41.661Z,1013.00
2023-05-21T01:28:41.646Z,1013.01
2023-05-21T01:29:41.631Z,1013.02
2023-05-21T01:30:41.614Z,1013.00
2023-05-21T01:31:41.628Z,1013.02
2023-05-21T01:32:41.786Z,1013.05
2023-05-21T01:33:41.698Z,1013.00
2023-05-21T01:34:41.583Z,1012.99
2023-05-21T01:35:41.577Z,1012.99
2023-05-21T01:36:41.535Z,1012.95
2023-05-21T01:37:41.560Z,1012.98
2023-05-21T01:38:41.522Z,1013.00
2023-05-21T01:39:41.526Z,1013.03
2023-05-21T01:40:41.517Z,1013.03
2023-05-21T01:41:41.494Z,1013.04
2023-05-21T01:42:41.495Z,1013.00
2023-05-21T01:43:41.536Z,1012.98
2023-05-21T01:44:42.930Z,1013.00
2023-05-21T01:45:41.479Z,1012.98
2023-05-21T01:46:41.475Z,1012.92
2023-05-21T01:47:41.464Z,1012.95
2023-05-21T01:48:41.416Z,1012.89
2023-05-21T01:49:41.418Z,1012.96
2023-05-21T01:50:41.555Z,1012.93
2023-05-21T01:51:41.406Z,1012.87
2023-05-21T01:52:41.366Z,1012.87
2023-05-21T01:53:41.363Z,1012.88
2023-05-21T01:54:41.347Z,1012.85
2023-05-21T01:55:42.832Z,1012.90
2023-05-21T01:56:41.360Z,1012.83
2023-05-21T01:57:42.157Z,1012.80
2023-05-21T01:58:41.301Z,1012.81
2023-05-21T01:59:41.296Z,1012.89
2023-05-21T02:00:42.814Z,1012.80
2023-05-21T02:01:42.285Z,1012.78
2023-05-21T02:02:41.356Z,1012.82
2023-05-21T02:03:41.397Z,1012.79
2023-05-21T02:04:41.309Z,1012.79
2023-05-21T02:05:41.268Z,1012.81
2023-05-21T02:06:41.647Z,1012.81
2023-05-21T02:07:41.209Z,1012.80
2023-05-21T02:08:41.192Z,1012.82
2023-05-21T02:09:41.184Z,1012.86
2023-05-21T02:10:41.182Z,1012.80
2023-05-21T02:11:41.191Z,1012.77
2023-05-21T02:12:41.148Z,1012.83
2023-05-21T02:13:41.171Z,1012.83
2023-05-21T02:14:41.129Z,1012.87
2023-05-21T02:15:41.121Z,1012.84
2023-05-21T02:16:41.126Z,1012.81
2023-05-21T02:17:41.103Z,1012.89
2023-05-21T02:18:41.208Z,1012.79
2023-05-21T02:19:41.073Z,1012.78
2023-05-21T02:20:41.070Z,1012.77
2023-05-21T02:21:41.048Z,1012.76
2023-05-21T02:22:41.014Z,1012.79
2023-05-21T02:23:41.038Z,1012.81
2023-05-21T02:24:41.025Z,1012.74
2023-05-21T02:25:41.003Z,1012.79
2023-05-21T02:26:41.020Z,1012.77
2023-05-21T02:27:40.973Z,1012.74
2023-05-21T02:28:40.962Z,1012.77
2023-05-21T02:29:42.427Z,1012.79
2023-05-21T02:30:40.979Z,1012.77
2023-05-21T02:31:41.044Z,1012.77
2023-05-21T02:32:41.816Z,1012.79
2023-05-21T02:33:40.929Z,1012.75
2023-05-21T02:34:40.905Z,1012.75
2023-05-21T02:35:40.893Z,1012.75
2023-05-21T02:36:40.868Z,1012.85
2023-05-21T02:37:40.931Z,1012.85
2023-05-21T02:38:41.016Z,1012.88
2023-05-21T02:39:40.840Z,1012.78
2023-05-21T02:40:40.828Z,1012.77
2023-05-21T02:41:41.984Z,1012.76
2023-05-21T02:42:40.800Z,1012.79
2023-05-21T02:43:42.804Z,1012.82
2023-05-21T02:44:41.223Z,1012.83
2023-05-21T02:45:40.811Z,1012.77
2023-05-21T02:46:40.760Z,1012.81
2023-05-21T02:47:41.004Z,1012.84
2023-05-21T02:48:40.746Z,1012.78
2023-05-21T02:49:42.216Z,1012.76
2023-05-21T02:50:42.188Z,1012.77
2023-05-21T02:51:41.680Z,1012.76
2023-05-21T02:52:45.946Z,1012.80
2023-05-21T02:53:41.529Z,1012.75
2023-05-21T02:54:40.687Z,1012.75
2023-05-21T02:55:40.656Z,1012.75
2023-05-21T02:56:40.634Z,1012.76
2023-05-21T02:57:40.632Z,1012.76
2023-05-21T02:58:40.648Z,1012.78
2023-05-21T02:59:40.638Z,1012.76
2023-05-21T03:00:40.629Z,1012.73
2023-05-21T03:01:40.830Z,1012.76
2023-05-21T03:02:40.805Z,1012.73
2023-05-21T03:03:40.668Z,1012.72
2023-05-21T03:04:40.537Z,1012.76
2023-05-21T03:05:40.538Z,1012.69
2023-05-21T03:06:40.557Z,1012.67
2023-05-21T03:07:40.540Z,1012.68
2023-05-21T03:08:40.507Z,1012.67
2023-05-21T03:09:41.368Z,1012.71
2023-05-21T03:10:41.358Z,1012.68
2023-05-21T03:11:41.984Z,1012.71
2023-05-21T03:12:41.981Z,1012.70
2023-05-21T03:13:41.454Z,1012.71
2023-05-21T03:14:40.561Z,1012.72
2023-05-21T03:15:40.439Z,1012.67
2023-05-21T03:16:41.222Z,1012.70
2023-05-21T03:17:40.508Z,1012.66
2023-05-21T03:18:40.389Z,1012.65
2023-05-21T03:19:40.440Z,1012.63
2023-05-21T03:20:40.387Z,1012.59
2023-05-21T03:21:40.355Z,1012.63
2023-05-21T03:22:42.422Z,1012.56
2023-05-21T03:23:40.792Z,1012.60
2023-05-21T03:24:41.303Z,1012.54
2023-05-21T03:25:40.322Z,1012.58
2023-05-21T03:26:40.332Z,1012.54
2023-05-21T03:27:40.292Z,1012.58
2023-05-21T03:28:41.118Z,1012.58
2023-05-21T03:29:40.298Z,1012.62
2023-05-21T03:30:40.270Z,1012.59
2023-05-21T03:31:40.298Z,1012.60
2023-05-21T03:32:40.308Z,1012.59
2023-05-21T03:33:40.237Z,1012.54
2023-05-21T03:34:40.229Z,1012.57
2023-05-21T03:35:41.999Z,1012.54
2023-05-21T03:36:40.195Z,1012.55
2023-05-21T03:37:40.188Z,1012.54
2023-05-21T03:38:40.194Z,1012.54
2023-05-21T03:39:42.004Z,1012.53
2023-05-21T03:40:40.539Z,1012.50
2023-05-21T03:41:40.189Z,1012.52
2023-05-21T03:42:41.023Z,1012.50
2023-05-21T03:43:42.025Z,1012.49
2023-05-21T03:44:40.103Z,1012.51
2023-05-21T03:45:43.583Z,1012.48
2023-05-21T03:46:40.920Z,1012.53
2023-05-21T03:47:41.073Z,1012.61
2023-05-21T03:48:40.112Z,1012.56
2023-05-21T03:49:40.058Z,1012.56
2023-05-21T03:50:40.227Z,1012.57
2023-05-21T03:51:40.080Z,1012.55
2023-05-21T03:52:40.007Z,1012.59
2023-05-21T03:53:40.014Z,1012.60
2023-05-21T03:54:39.990Z,1012.54
2023-05-21T03:55:41.950Z,1012.56
2023-05-21T03:56:39.997Z,1012.60
2023-05-21T03:57:47.162Z,1012.57
2023-05-21T03:58:40.366Z,1012.56
2023-05-21T03:59:39.936Z,1012.56
2023-05-21T04:00:40.105Z,1012.60
2023-05-21T04:01:40.716Z,1012.55
2023-05-21T04:02:40.197Z,1012.54
2023-05-21T04:03:42.086Z,1012.57
2023-05-21T04:04:41.068Z,1012.55
2023-05-21T04:05:40.718Z,1012.55
2023-05-21T04:06:39.901Z,1012.57
2023-05-21T04:07:39.903Z,1012.56
2023-05-21T04:08:39.860Z,1012.58
2023-05-21T04:09:39.830Z,1012.55
2023-05-21T04:10:39.855Z,1012.60
2023-05-21T04:11:39.810Z,1012.62
2023-05-21T04:12:39.804Z,1012.59
2023-05-21T04:13:39.787Z,1012.62
2023-05-21T04:14:41.718Z,1012.55
2023-05-21T04:15:39.904Z,1012.61
2023-05-21T04:16:39.838Z,1012.55
2023-05-21T04:17:39.879Z,1012.59
2023-05-21T04:18:39.715Z,1012.61
2023-05-21T04:19:39.840Z,1012.59
2023-05-21T04:20:39.986Z,1012.63
2023-05-21T04:21:39.718Z,1012.65
2023-05-21T04:22:39.879Z,1012.65
2023-05-21T04:23:39.718Z,1012.65
2023-05-21T04:24:39.667Z,1012.65
2023-05-21T04:25:39.672Z,1012.62
2023-05-21T04:26:39.617Z,1012.66
2023-05-21T04:27:39.742Z,1012.67
2023-05-21T04:28:39.697Z,1012.70
2023-05-21T04:29:39.786Z,1012.69
2023-05-21T04:30:39.836Z,1012.70
2023-05-21T04:31:39.616Z,1012.59
2023-05-21T04:32:39.640Z,1012.67
2023-05-21T04:33:39.639Z,1012.63
2023-05-21T04:34:39.602Z,1012.68
2023-05-21T04:35:39.531Z,1012.60
2023-05-21T04:36:39.544Z,1012.61
2023-05-21T04:37:39.559Z,1012.57
2023-05-21T04:38:39.693Z,1012.61
2023-05-21T04:39:41.109Z,1012.57
2023-05-21T04:40:39.479Z,1012.63
2023-05-21T04:41:39.687Z,1012.55
2023-05-21T04:42:39.455Z,1012.56
2023-05-21T04:43:39.846Z,1012.56
2023-05-21T04:44:40.314Z,1012.61
2023-05-21T04:45:39.450Z,1012.63
2023-05-21T04:46:41.573Z,1012.61
2023-05-21T04:47:41.522Z,1012.63
2023-05-21T04:48:41.333Z,1012.63
2023-05-21T04:49:39.633Z,1012.64
2023-05-21T04:50:39.355Z,1012.66
2023-05-21T04:51:40.164Z,1012.64
2023-05-21T04:52:39.326Z,1012.65
2023-05-21T04:53:41.817Z,1012.62
2023-05-21T04:54:40.063Z,1012.71
2023-05-21T04:55:39.837Z,1012.68
2023-05-21T04:56:39.336Z,1012.64
2023-05-21T04:57:39.361Z,1012.66
2023-05-21T04:58:39.259Z,1012.68
2023-05-21T04:59:39.312Z,1012.70
2023-05-21T05:00:39.379Z,1012.67
2023-05-21T05:01:39.347Z,1012.70
2023-05-21T05:02:40.137Z,1012.76
2023-05-21T05:03:39.256Z,1012.74
2023-05-21T05:04:39.198Z,1012.77
2023-05-21T05:05:39.486Z,1012.77
2023-05-21T05:06:39.163Z,1012.74
2023-05-21T05:07:39.171Z,1012.72
2023-05-21T05:08:39.334Z,1012.71
2023-05-21T05:09:39.156Z,1012.72
2023-05-21T05:10:39.168Z,1012.71
2023-05-21T05:11:39.153Z,1012.69
2023-05-21T05:12:39.291Z,1012.69
2023-05-21T05:13:39.095Z,1012.70
2023-05-21T05:14:39.072Z,1012.70
2023-05-21T05:15:40.600Z,1012.70
2023-05-21T05:16:41.090Z,1012.68
2023-05-21T05:17:39.112Z,1012.73
2023-05-21T05:18:39.050Z,1012.69
2023-05-21T05:19:39.037Z,1012.62
2023-05-21T05:20:39.008Z,1012.65
2023-05-21T05:21:39.023Z,1012.61
2023-05-21T05:22:39.033Z,1012.63
2023-05-21T05:23:38.973Z,1012.55
2023-05-21T05:24:38.956Z,1012.64
2023-05-21T05:25:39.117Z,1012.61
2023-05-21T05:26:38.947Z,1012.65
2023-05-21T05:27:38.930Z,1012.66
2023-05-21T05:28:38.954Z,1012.59
2023-05-21T05:29:38.943Z,1012.59
2023-05-21T05:30:38.923Z,1012.61
2023-05-21T05:31:38.885Z,1012.60
2023-05-21T05:32:38.896Z,1012.62
2023-05-21T05:33:38.918Z,1012.63
2023-05-21T05:34:38.885Z,1012.65
2023-05-21T05:35:38.863Z,1012.58
2023-05-21T05:36:38.839Z,1012.57
2023-05-21T05:37:38.845Z,1012.58
2023-05-21T05:38:38.844Z,1012.53
2023-05-21T05:39:38.946Z,1012.58
2023-05-21T05:40:38.785Z,1012.58
2023-05-21T05:41:38.757Z,1012.56
2023-05-21T05:42:38.780Z,1012.54
2023-05-21T05:43:38.786Z,1012.57
2023-05-21T05:44:38.739Z,1012.55
2023-05-21T05:45:39.029Z,1012.53
2023-05-21T05:46:38.822Z,1012.54
2023-05-21T05:47:38.705Z,1012.49
2023-05-21T05:48:38.688Z,1012.52
2023-05-21T05:49:38.698Z,1012.51
2023-05-21T05:50:38.764Z,1012.46
2023-05-21T05:51:38.957Z,1012.40
2023-05-21T05:52:38.715Z,1012.40
2023-05-21T05:53:38.778Z,1012.44
2023-05-21T05:54:39.434Z,1012.43
2023-05-21T05:55:39.233Z,1012.42
2023-05-21T05:56:40.586Z,1012.39
2023-05-21T05:57:40.549Z,1012.48
2023-05-21T05:58:38.597Z,1012.43
2023-05-21T05:59:39.451Z,1012.42
2023-05-21T06:00:38.600Z,1012.44
2023-05-21T06:01:38.544Z,1012.46
2023-05-21T06:02:40.663Z,1012.45
2023-05-21T06:03:38.779Z,1012.48
2023-05-21T06:04:38.540Z,1012.53
2023-05-21T06:05:38.891Z,1012.55
2023-05-21T06:06:38.525Z,1012.56
2023-05-21T06:07:38.480Z,1012.54
2023-05-21T06:08:38.706Z,1012.49
2023-05-21T06:09:38.463Z,1012.51
2023-05-21T06:10:38.751Z,1012.49
2023-05-21T06:11:38.702Z,1012.55
2023-05-21T06:12:38.440Z,1012.55
2023-05-21T06:13:38.430Z,1012.53
2023-05-21T06:14:38.605Z,1012.52
2023-05-21T06:15:38.571Z,1012.53
2023-05-21T06:16:39.242Z,1012.51
2023-05-21T06:17:38.432Z,1012.52
2023-05-21T06:18:38.373Z,1012.61
2023-05-21T06:19:38.365Z,1012.56
2023-05-21T06:20:38.417Z,1012.54
2023-05-21T06:21:40.293Z,1012.58
2023-05-21T06:22:38.328Z,1012.57
2023-05-21T06:23:38.344Z,1012.60
2023-05-21T06:24:38.312Z,1012.56
2023-05-21T06:25:40.360Z,1012.55
2023-05-21T06:26:38.330Z,1012.53
2023-05-21T06:27:39.789Z,1012.55
2023-05-21T06:28:38.255Z,1012.51
2023-05-21T06:29:38.265Z,1012.46
2023-05-21T06:30:38.218Z,1012.47
2023-05-21T06:31:38.249Z,1012.48
2023-05-21T06:32:40.245Z,1012.47
2023-05-21T06:33:38.326Z,1012.47
2023-05-21T06:34:38.272Z,1012.44
2023-05-21T06:35:40.147Z,1012.45
2023-05-21T06:36:38.197Z,1012.47
2023-05-21T06:37:38.178Z,1012.37
2023-05-21T06:38:38.159Z,1012.38
2023-05-21T06:39:40.571Z,1012.35
2023-05-21T06:40:38.135Z,1012.32
2023-05-21T06:41:38.349Z,1012.29
2023-05-21T06:42:38.213Z,1012.32
2023-05-21T06:43:38.106Z,1012.30
2023-05-21T06:44:38.093Z,1012.33
2023-05-21T06:45:38.375Z,1012.25
2023-05-21T06:46:40.000Z,1012.28
2023-05-21T06:47:38.063Z,1012.31
2023-05-21T06:48:38.032Z,1012.26
2023-05-21T06:49:38.045Z,1012.24
2023-05-21T06:50:38.019Z,1012.28
2023-05-21T06:51:38.044Z,1012.23
2023-05-21T06:52:37.979Z,1012.22
2023-05-21T06:53:37.957Z,1012.24
2023-05-21T06:54:37.980Z,1012.26
2023-05-21T06:55:38.143Z,1012.24
2023-05-21T06:56:37.968Z,1012.24
2023-05-21T06:57:37.929Z,1012.24
2023-05-21T06:58:38.004Z,1012.23
2023-05-21T06:59:37.945Z,1012.24
2023-05-21T07:00:37.884Z,1012.21
2023-05-21T07:01:38.069Z,1012.31
2023-05-21T07:02:39.943Z,1012.20
2023-05-21T07:03:38.870Z,1012.23
2023-05-21T07:04:39.836Z,1012.23
2023-05-21T07:05:38.598Z,1012.25
2023-05-21T07:06:37.956Z,1012.26
2023-05-21T07:07:37.903Z,1012.25
2023-05-21T07:08:37.818Z,1012.29
2023-05-21T07:09:38.057Z,1012.26
2023-05-21T07:10:38.561Z,1012.28
2023-05-21T07:11:37.878Z,1012.25
2023-05-21T07:12:37.750Z,1012.28
2023-05-21T07:13:37.737Z,1012.28
2023-05-21T07:14:39.702Z,1012.31
2023-05-21T07:15:38.791Z,1012.31
2023-05-21T07:16:38.572Z,1012.35
2023-05-21T07:17:37.848Z,1012.35
2023-05-21T07:18:38.081Z,1012.32
2023-05-21T07:19:39.678Z,1012.32
2023-05-21T07:20:38.209Z,1012.40
2023-05-21T07:21:37.660Z,1012.33
2023-05-21T07:22:38.249Z,1012.35
2023-05-21T07:23:37.699Z,1012.34
2023-05-21T07:24:37.650Z,1012.32
2023-05-21T07:25:39.574Z,1012.30
2023-05-21T07:26:37.608Z,1012.38
2023-05-21T07:27:37.568Z,1012.36
2023-05-21T07:28:37.629Z,1012.32
2023-05-21T07:29:37.601Z,1012.32
2023-05-21T07:30:37.579Z,1012.33
2023-05-21T07:31:37.691Z,1012.32
2023-05-21T07:32:37.553Z,1012.36
2023-05-21T07:33:37.582Z,1012.33
2023-05-21T07:34:37.563Z,1012.36
2023-05-21T07:35:37.827Z,1012.37
2023-05-21T07:36:39.447Z,1012.31
2023-05-21T07:37:37.511Z,1012.33
2023-05-21T07:38:37.519Z,1012.32
2023-05-21T07:39:37.483Z,1012.33
2023-05-21T07:40:37.441Z,1012.35
2023-05-21T07:41:38.232Z,1012.36
2023-05-21T07:42:37.493Z,1012.34
2023-05-21T07:43:38.249Z,1012.35
2023-05-21T07:44:37.530Z,1012.35
2023-05-21T07:45:39.061Z,1012.32
2023-05-21T07:46:37.434Z,1012.35
2023-05-21T07:47:39.386Z,1012.38
2023-05-21T07:48:37.351Z,1012.34
2023-05-21T07:49:37.346Z,1012.34
2023-05-21T07:50:39.301Z,1012.31
2023-05-21T07:51:37.307Z,1012.29
2023-05-21T07:52:37.450Z,1012.32
2023-05-21T07:53:37.287Z,1012.33
2023-05-21T07:54:37.320Z,1012.28
2023-05-21T07:55:37.549Z,1012.29
2023-05-21T07:56:37.552Z,1012.27
2023-05-21T07:57:37.244Z,1012.29
2023-05-21T07:58:37.453Z,1012.26
2023-05-21T07:59:37.261Z,1012.24
2023-05-21T08:00:37.299Z,1012.29
2023-05-21T08:01:37.210Z,1012.27
2023-05-21T08:02:37.357Z,1012.30
2023-05-21T08:03:37.350Z,1012.28
2023-05-21T08:04:39.253Z,1012.25
2023-05-21T08:05:37.302Z,1012.25
2023-05-21T08:06:37.659Z,1012.25
2023-05-21T08:07:37.135Z,1012.28
2023-05-21T08:08:37.113Z,1012.26
2023-05-21T08:09:37.102Z,1012.24
2023-05-21T08:10:38.120Z,1012.24
2023-05-21T08:11:39.136Z,1012.26
2023-05-21T08:12:37.096Z,1012.25
2023-05-21T08:13:37.119Z,1012.28
2023-05-21T08:14:37.050Z,1012.26
2023-05-21T08:15:37.189Z,1012.32
2023-05-21T08:16:37.106Z,1012.29
2023-05-21T08:17:37.130Z,1012.39
2023-05-21T08:18:37.011Z,1012.30
2023-05-21T08:19:37.088Z,1012.28
2023-05-21T08:20:37.016Z,1012.33
2023-05-21T08:21:36.974Z,1012.38
2023-05-21T08:22:37.762Z,1012.36
2023-05-21T08:23:37.324Z,1012.35
2023-05-21T08:24:37.756Z,1012.42
2023-05-21T08:25:37.164Z,1012.40
2023-05-21T08:26:36.986Z,1012.34
2023-05-21T08:27:36.915Z,1012.38
2023-05-21T08:28:36.913Z,1012.41
2023-05-21T08:29:36.948Z,1012.37
2023-05-21T08:30:37.480Z,1012.38
2023-05-21T08:31:37.078Z,1012.39
2023-05-21T08:32:37.907Z,1012.44
2023-05-21T08:33:36.844Z,1012.42
2023-05-21T08:34:38.801Z,1012.42
2023-05-21T08:35:39.077Z,1012.39
2023-05-21T08:36:36.830Z,1012.42
2023-05-21T08:37:37.176Z,1012.42
2023-05-21T08:38:37.105Z,1012.46
2023-05-21T08:39:36.860Z,1012.43
2023-05-21T08:40:36.836Z,1012.40
2023-05-21T08:41:36.759Z,1012.40
2023-05-21T08:42:37.736Z,1012.40
2023-05-21T08:43:36.717Z,1012.38
2023-05-21T08:44:36.723Z,1012.41
2023-05-21T08:45:37.179Z,1012.39
2023-05-21T08:46:36.698Z,1012.37
2023-05-21T08:47:36.818Z,1012.41
2023-05-21T08:48:36.778Z,1012.37
2023-05-21T08:49:36.723Z,1012.31
2023-05-21T08:50:36.698Z,1012.33
2023-05-21T08:51:36.654Z,1012.33
2023-05-21T08:52:36.637Z,1012.28
2023-05-21T08:53:36.617Z,1012.33
2023-05-21T08:54:36.639Z,1012.33
2023-05-21T08:55:36.843Z,1012.31
2023-05-21T08:56:36.599Z,1012.37
2023-05-21T08:57:36.566Z,1012.34
2023-05-21T08:58:41.496Z,1012.34
2023-05-21T08:59:36.578Z,1012.32
2023-05-21T09:00:36.539Z,1012.31
2023-05-21T09:01:36.562Z,1012.30
2023-05-21T09:02:36.707Z,1012.30
2023-05-21T09:03:36.571Z,1012.26
2023-05-21T09:04:36.603Z,1012.22
2023-05-21T09:05:36.954Z,1012.23
2023-05-21T09:06:36.479Z,1012.22
2023-05-21T09:07:36.456Z,1012.22
2023-05-21T09:08:37.710Z,1012.21
2023-05-21T09:09:36.506Z,1012.17
2023-05-21T09:10:37.381Z,1012.18
2023-05-21T09:11:36.417Z,1012.14
2023-05-21T09:12:36.424Z,1012.13
2023-05-21T09:13:38.273Z,1012.14
2023-05-21T09:14:36.432Z,1012.16
2023-05-21T09:15:36.607Z,1012.14
2023-05-21T09:16:36.430Z,1012.11
2023-05-21T09:17:36.424Z,1012.11
2023-05-21T09:18:36.349Z,1012.09
2023-05-21T09:19:36.469Z,1012.03
2023-05-21T09:20:36.356Z,1012.03
2023-05-21T09:21:37.116Z,1012.02
2023-05-21T09:22:36.299Z,1012.03
2023-05-21T09:23:37.756Z,1012.01
2023-05-21T09:24:36.645Z,1012.00
2023-05-21T09:25:36.495Z,1012.00
2023-05-21T09:26:36.281Z,1012.01
2023-05-21T09:27:36.232Z,1012.01
2023-05-21T09:28:36.261Z,1012.02
2023-05-21T09:29:36.234Z,1012.03
2023-05-21T09:30:36.597Z,1012.01
2023-05-21T09:31:36.208Z,1012.00
2023-05-21T09:32:37.215Z,1012.01
2023-05-21T09:33:36.199Z,1012.04
2023-05-21T09:34:36.959Z,1011.99
2023-05-21T09:35:36.871Z,1012.05
2023-05-21T09:36:36.119Z,1011.99
2023-05-21T09:37:36.312Z,1011.98
2023-05-21T09:38:36.146Z,1012.01
2023-05-21T09:39:38.144Z,1011.94
2023-05-21T09:40:36.409Z,1011.98
2023-05-21T09:41:36.327Z,1011.98
2023-05-21T09:42:36.101Z,1012.00
2023-05-21T09:43:36.072Z,1011.97
2023-05-21T09:44:36.036Z,1012.02
2023-05-21T09:45:36.268Z,1011.97
2023-05-21T09:46:36.045Z,1011.94
2023-05-21T09:47:36.088Z,1011.90
2023-05-21T09:48:35.995Z,1011.90
2023-05-21T09:49:35.977Z,1011.86
2023-05-21T09:50:36.257Z,1011.84
2023-05-21T09:51:35.963Z,1011.84
2023-05-21T09:52:35.976Z,1011.79
2023-05-21T09:53:36.301Z,1011.83
2023-05-21T09:54:36.908Z,1011.82
2023-05-21T09:55:36.718Z,1011.80
2023-05-21T09:56:36.317Z,1011.82
2023-05-21T09:57:36.030Z,1011.80
2023-05-21T09:58:35.895Z,1011.78
2023-05-21T09:59:35.914Z,1011.84
2023-05-21T10:00:36.940Z,1011.81
2023-05-21T10:01:37.389Z,1011.83
2023-05-21T10:02:36.890Z,1011.82
2023-05-21T10:03:35.884Z,1011.82
2023-05-21T10:04:35.933Z,1011.81
2023-05-21T10:05:36.637Z,1011.79
2023-05-21T10:06:37.312Z,1011.81
2023-05-21T10:07:35.778Z,1011.77
2023-05-21T10:08:37.229Z,1011.80
2023-05-21T10:09:35.874Z,1011.79
2023-05-21T10:10:35.959Z,1011.80
2023-05-21T10:11:35.819Z,1011.78
2023-05-21T10:12:35.775Z,1011.74
2023-05-21T10:13:35.719Z,1011.78
2023-05-21T10:14:35.730Z,1011.75
2023-05-21T10:15:36.558Z,1011.76
2023-05-21T10:16:35.785Z,1011.74
2023-05-21T10:17:35.768Z,1011.73
2023-05-21T10:18:35.661Z,1011.70
2023-05-21T10:19:35.699Z,1011.66
2023-05-21T10:20:37.469Z,1011.70
2023-05-21T10:21:37.088Z,1011.72
2023-05-21T10:22:35.655Z,1011.73
2023-05-21T10:23:37.572Z,1011.70
2023-05-21T10:24:37.052Z,1011.66
2023-05-21T10:25:36.392Z,1011.68
2023-05-21T10:26:35.556Z,1011.63
2023-05-21T10:27:37.030Z,1011.63
2023-05-21T10:28:35.549Z,1011.59
2023-05-21T10:29:35.537Z,1011.61
2023-05-21T10:30:35.706Z,1011.60
2023-05-21T10:31:35.533Z,1011.58
2023-05-21T10:32:35.737Z,1011.57
2023-05-21T10:33:35.560Z,1011.50
2023-05-21T10:34:35.466Z,1011.56
2023-05-21T10:35:35.695Z,1011.54
2023-05-21T10:36:35.473Z,1011.50
2023-05-21T10:37:35.465Z,1011.47
2023-05-21T10:38:35.435Z,1011.45
2023-05-21T10:39:35.443Z,1011.45
2023-05-21T10:40:35.616Z,1011.50
2023-05-21T10:41:35.408Z,1011.50
2023-05-21T10:42:35.437Z,1011.41
2023-05-21T10:43:35.391Z,1011.41
2023-05-21T10:44:35.373Z,1011.41
2023-05-21T10:45:35.577Z,1011.42
2023-05-21T10:46:35.346Z,1011.38
2023-05-21T10:47:36.218Z,1011.32
2023-05-21T10:48:35.310Z,1011.31
2023-05-21T10:49:35.319Z,1011.32
2023-05-21T10:50:36.037Z,1011.27
2023-05-21T10:51:36.840Z,1011.34
2023-05-21T10:52:36.752Z,1011.31
2023-05-21T10:53:35.328Z,1011.36
2023-05-21T10:54:35.258Z,1011.34
2023-05-21T10:55:36.143Z,1011.38
2023-05-21T10:56:35.230Z,1011.35
2023-05-21T10:57:35.226Z,1011.33
2023-05-21T10:58:35.208Z,1011.31
2023-05-21T10:59:36.683Z,1011.38
2023-05-21T11:00:35.354Z,1011.33
2023-05-21T11:01:35.476Z,1011.34
2023-05-21T11:02:36.232Z,1011.33
2023-05-21T11:03:37.747Z,1011.37
2023-05-21T11:04:35.537Z,1011.26
2023-05-21T11:05:36.723Z,1011.27
2023-05-21T11:06:35.148Z,1011.27
2023-05-21T11:07:35.226Z,1011.28
2023-05-21T11:08:35.100Z,1011.28
2023-05-21T11:09:35.599Z,1011.29
2023-05-21T11:10:37.034Z,1011.29
2023-05-21T11:11:35.113Z,1011.29
2023-05-21T11:12:35.058Z,1011.26
2023-05-21T11:13:35.848Z,1011.29
2023-05-21T11:14:35.468Z,1011.27
2023-05-21T11:15:35.997Z,1011.26
2023-05-21T11:16:35.015Z,1011.28
2023-05-21T11:17:35.118Z,1011.27
2023-05-21T11:18:35.002Z,1011.24
2023-05-21T11:19:35.114Z,1011.24
2023-05-21T11:20:35.196Z,1011.28
2023-05-21T11:21:36.722Z,1011.27
2023-05-21T11:22:34.940Z,1011.28
2023-05-21T11:23:35.321Z,1011.31
2023-05-21T11:24:34.913Z,1011.33
2023-05-21T11:25:36.704Z,1011.25
2023-05-21T11:26:35.753Z,1011.23
2023-05-21T11:27:36.702Z,1011.29
2023-05-21T11:28:34.969Z,1011.29
2023-05-21T11:29:36.713Z,1011.29
2023-05-21T11:30:36.233Z,1011.29
2023-05-21T11:31:35.012Z,1011.26
2023-05-21T11:32:34.881Z,1011.29
2023-05-21T11:33:36.784Z,1011.21
2023-05-21T11:34:34.827Z,1011.19
2023-05-21T11:35:36.707Z,1011.17
2023-05-21T11:36:36.043Z,1011.19
2023-05-21T11:37:34.857Z,1011.15
2023-05-21T11:38:35.557Z,1011.16
2023-05-21T11:39:34.766Z,1011.17
2023-05-21T11:40:34.939Z,1011.17
2023-05-21T11:41:34.836Z,1011.14
2023-05-21T11:42:35.719Z,1011.17
2023-05-21T11:43:34.771Z,1011.13
2023-05-21T11:44:34.704Z,1011.19
2023-05-21T11:45:36.660Z,1011.12
2023-05-21T11:46:35.328Z,1011.13
2023-05-21T11:47:36.691Z,1011.19
2023-05-21T11:48:36.166Z,1011.17
2023-05-21T11:49:35.519Z,1011.16
2023-05-21T11:50:36.847Z,1011.17
2023-05-21T11:51:35.433Z,1011.20
2023-05-21T11:52:35.095Z,1011.24
2023-05-21T11:53:35.458Z,1011.23
2023-05-21T11:54:36.572Z,1011.25
2023-05-21T11:55:36.560Z,1011.21
2023-05-21T11:56:34.663Z,1011.24
2023-05-21T11:57:36.559Z,1011.20
2023-05-21T11:58:35.020Z,1011.10
2023-05-21T11:59:36.542Z,1011.06
2023-05-21T12:00:35.639Z,1011.12
2023-05-21T12:01:34.913Z,1011.09
2023-05-21T12:02:36.814Z,1011.11
2023-05-21T12:03:35.450Z,1011.07
2023-05-21T12:04:35.277Z,1011.11
2023-05-21T12:05:36.544Z,1011.17